首页
METAR-TAF:

METAR-TAF

机场 :

Needles Airport

Needles, 加利福尼亚州, 美国

纬度: 34-45-58N, 经度: 114-37-24W, 海拔: 300米

当前天气观测

该预报发布于43分钟前的08:56 UTC
风速5节,风向南转西南
温度 19°C
湿度 32%
气压 1014 hPa
能見度: 16.1公里
天空无云

METAR: KEED 150856Z AUTO 21005KT 10SM CLR 19/02 A2995 RMK AO2 SLP116 T01940022 53009

时间: 02:39 (09:39 UTC)

预报

该预报发布于4小时和19分钟前的05:20 UTC
预报有效从15日的 06点(UTC)到 16日的 06点(UTC)
风速7节,风向西
能見度: 10公里
天空无云
从 15日的 1600点(UTC)
风速8节,风向北转东北
能見度: 10公里
天空无云
从 16日的 0200点(UTC)
风速7节,风向西转西北
能見度: 10公里
天空无云

TAF: KEED 150520Z 1506/1606 26007KT P6SM SKC FM151600 02008KT P6SM SKC FM160200 30007KT P6SM SKC

超过4000个机场的气象观测和天气预报(METAR&TAF报告)。

可查询的气象台以黄色和红色小点在地图上表示。

将鼠标移到小点上方,可查看气象台名称。

然后点击查看天气观测和预报。

如需切换地图:点击带黑十字的绿色按钮放大地图;点击带横线的绿色按钮缩小地图;或者点击绿色箭头查看邻近地区的地图。


METAR-TAF: